Market Rasen, United Kingdom
Current Conditions -  °F | °C
As of 1:50 PM on Monday 26 Jan 2015 (Local Time) from EGXP Reporting Station
Scattered Clouds Scattered Clouds  
Wind Chill:   Ceiling: Unl
Heat Index:   Visibility: 6mi
Dew Point:   Wind: 21mph
Humidity: 71%   Direction: 300°WNW
Pressure: 30.15"   Gusts: NA
Location:  53.39°N, 0.34°W
Report Text: EGXP 261350Z 30018KT 9999 SCT025 07/02 Q1021 BLU
Loading
Personal Weather Stations






























Interactive Weather Map New forecast layout! Learn more

10-Day Weather Forecast

Advertisements
Track Severe Weather on mobile